Latest Coastal Weather Observations for Truscott

IDW60701

Issued at 8:43 am WST Tuesday 17 January 2017 (issued every 10 minutes, with the page automatically refreshed every 10 minutes)

About coastal observations | Map of coastal stations | Coastal observations for WA | Marine services | Other Formats
Station Details ID: 001020 Name: TRUSCOTT Lat: -14.09 Lon: 126.39 Height: 51.0 m
Data from the previous 72 hours. | See also: Recent months at Truscott
Date/Time
WST
Temp
°C
Wind Pressure Rain since
9am
mm
Weather Cloud Vis
km
Sea
Height
m
Swell
Dir  Spd
kts
Gust
kts
hPa Trend Height
m
Period
s
Dir
17/08:30am 29.0 W 5 4 1008.0 - 0.0 - - 10 - - - -
17/08:00am 29.0 SSW 4 - 1007.7 - 0.0 - - 10 - - - -
17/07:30am 28.6 SSW 3 5 1007.6 - 0.0 - Partly cloudy 10 - - - -
17/07:00am 28.1 SW 5 - 1007.5 - 0.0 - Partly cloudy 10 - - - -
17/06:30am 28.0 S 4 - 1007.0 - 0.0 - Partly cloudy 10 - - - -
17/06:00am 27.7 WNW 3 4 1007.4 - 0.0 - Partly cloudy 10 - - - -
17/05:30am 27.6 W 3 4 1007.1 - 0.0 - - 10 - - - -
17/05:00am 27.4 WSW 1 - 1006.6 - 0.0 - - 10 - - - -
17/04:30am 27.2 CALM 0 0 1006.5 - 0.0 - - 10 - - - -
17/04:00am 27.5 CALM 0 0 1006.2 - 0.0 - - 10 - - - -
17/03:30am 27.8 WNW 2 5 1006.1 - 0.0 - - 10 - - - -
17/03:00am 27.7 WNW 3 4 1005.8 - 0.0 - Mostly cloudy 10 - - - -
17/02:30am 27.7 WNW 4 5 1005.7 - 0.0 - - 10 - - - -
17/02:00am 27.7 NW 3 4 1005.9 - 0.0 - - 10 - - - -
17/01:30am 27.8 WNW 3 5 1006.0 - 0.0 - - 10 - - - -
17/01:00am 28.0 W 3 - 1006.0 - 0.0 - Partly cloudy 10 - - - -
17/12:30am 28.0 W 3 5 1006.1 - 0.0 - Partly cloudy 10 - - - -
17/12:00am 28.2 SSW 4 5 1006.3 - 0.0 - Cloudy 10 - - - -
 
Date/Time
WST
Temp
°C
Wind Pressure Rain since
9am
mm
Weather Cloud Vis
km
Sea
Height
m
Swell
Dir  Spd
kts
Gust
kts
hPa Trend Height
m
Period
s
Dir
16/11:30pm 28.4 W 5 8 1006.6 - 0.0 - Partly cloudy 10 - - - -
16/11:00pm 28.4 W 6 8 1007.0 - 0.0 - Partly cloudy 10 - - - -
16/10:30pm 28.5 WNW 6 10 1007.3 - 0.0 - Partly cloudy 10 - - - -
16/10:00pm 28.3 NW 5 7 1007.3 - 0.0 - - 10 - - - -
16/09:30pm 28.4 NW 6 11 1007.2 - 0.0 - - 10 - - - -
16/09:00pm 28.5 NW 6 9 1007.4 - 0.0 - Mostly cloudy 10 - - - -
16/08:30pm 28.4 NW 5 8 1007.6 - 0.0 - - 10 - - - -
16/08:00pm 28.6 NW 7 10 1007.3 - 0.0 - - 10 - - - -
16/07:30pm 28.5 NW 6 9 1007.0 - 0.0 - - 10 - - - -
16/07:00pm 28.6 NW 6 9 1006.5 - 0.0 - - 10 - - - -
16/06:30pm 28.7 NW 6 9 1006.2 - 0.0 - - 10 - - - -
16/06:00pm 28.8 NW 7 10 1006.0 - 0.0 - - 10 - - - -
16/05:30pm 29.1 NW 8 11 1005.6 - 0.0 - - 10 - - - -
16/05:00pm 29.4 NW 9 13 1005.4 - 0.0 - - 10 - - - -
16/04:30pm 29.9 NW 9 13 1005.5 - 0.0 - - 10 - - - -
16/04:00pm 30.2 NW 9 - 1005.2 - 0.0 - Partly cloudy 10 - - - -
16/03:30pm 30.1 NW 8 12 1005.0 - 0.0 - Partly cloudy 10 - - - -
16/03:00pm 30.5 WNW 7 - 1005.1 - 0.0 - Partly cloudy 10 - - - -
16/02:30pm 30.5 NNW 7 10 1005.2 - 0.0 - Partly cloudy 10 - - - -
16/02:00pm 31.2 W 7 11 1005.5 - 0.0 - - 10 - - - -
16/01:30pm 32.0 WNW 7 - 1006.0 - 0.0 - - 10 - - - -
16/01:00pm 31.6 WNW 9 12 1006.2 - 0.0 - Partly cloudy 10 - - - -
16/12:30pm 32.0 WNW 8 - 1007.0 - 0.0 - - 10 - - - -
16/12:00pm 31.3 WNW 8 11 1006.8 - 0.0 - - 10 - - - -
16/11:30am 31.3 WNW 8 11 1006.9 - 0.0 - - 10 - - - -
16/11:00am 31.0 WNW 8 11 1007.2 - 0.0 - - 10 - - - -
16/10:30am 30.3 WNW 8 11 1007.6 - 0.0 - - 10 - - - -
16/10:00am 30.2 W 10 - 1008.1 - 0.0 - - 10 - - - -
16/09:30am 30.1 WNW 8 12 1008.4 - 0.0 - Partly cloudy 10 - - - -
16/09:00am 29.9 W 7 11 1008.6 - 0.0 - Cloudy 10 - - - -
16/08:30am 31.0 WSW 7 - 1009.0 - 0.0 - Partly cloudy 10 - - - -
16/08:00am 30.1 SW 6 - 1008.7 - 0.0 - Partly cloudy 10 - - - -
16/07:30am 29.4 SW 7 11 1008.6 - 0.0 - Partly cloudy 10 - - - -
16/07:00am 29.1 SW 7 9 1008.4 - 0.0 - Partly cloudy 10 - - - -
16/06:30am 28.4 SW 5 7 1008.2 - 0.0 - Partly cloudy 10 - - - -
16/06:00am 27.5 SW 4 5 1008.0 - 0.0 - - 10 - - - -
16/05:30am 27.2 W 3 5 1007.5 - 0.0 - - 10 - - - -
16/05:00am 27.5 W 5 8 1007.3 - 0.0 - - 10 - - - -
16/04:30am 27.5 W 5 6 1007.0 - 0.0 - Partly cloudy 10 - - - -
16/04:00am 27.5 W 5 7 1006.6 - 0.0 - Partly cloudy 10 - - - -
16/03:30am 27.5 W 5 7 1006.3 - 0.0 - Partly cloudy 10 - - - -
16/03:00am 27.5 W 5 7 1006.2 - 0.0 - - 10 - - - -
16/02:30am 27.5 W 4 5 1006.4 - 0.0 - Partly cloudy 10 - - - -
16/02:00am 27.8 W 5 7 1006.6 - 0.0 - Partly cloudy 10 - - - -
16/01:30am 27.8 W 5 7 1006.6 - 0.0 - - 10 - - - -
16/01:00am 27.9 W 5 8 1007.0 - 0.0 - Partly cloudy 10 - - - -
16/12:30am 27.9 WNW 6 8 1007.2 - 0.0 - - 10 - - - -
16/12:00am 27.9 W 5 7 1007.6 - 0.0 - Mostly clear 10 - - - -
 
Date/Time
WST
Temp
°C
Wind Pressure Rain since
9am
mm
Weather Cloud Vis
km
Sea
Height
m
Swell
Dir  Spd
kts
Gust
kts
hPa Trend Height
m
Period
s
Dir
15/11:30pm 28.0 W 5 - 1008.0 - 0.0 - - 10 - - - -
15/11:00pm 28.2 W 7 9 1007.7 - 0.0 - - 10 - - - -
15/10:30pm 28.4 W 5 8 1008.1 - 0.0 - - 10 - - - -
15/10:00pm 28.3 WNW 7 10 1007.9 - 0.0 - Partly cloudy 10 - - - -
15/09:30pm 28.4 W 5 8 1008.1 - 0.0 - Partly cloudy 10 - - - -
15/09:00pm 28.6 W 6 9 1008.0 - 0.0 - - 10 - - - -
15/08:30pm 28.6 WNW 6 9 1007.9 - 0.0 - Partly cloudy 10 - - - -
15/08:00pm 28.5 WNW 7 11 1007.6 - 0.0 - - 10 - - - -
15/07:30pm 28.8 WNW 7 12 1007.7 - 0.0 - Partly cloudy 10 - - - -
15/07:00pm 29.0 WNW 5 - 1007.5 - 0.0 - Partly cloudy 10 - - - -
15/06:30pm 29.0 WNW 5 - 1007.0 - 0.0 - - 10 - - - -
15/06:00pm 29.0 NW 6 10 1006.7 - 0.0 - - 10 - - - -
15/05:30pm 29.3 NW 7 11 1006.3 - 0.0 - - 10 - - - -
15/05:00pm 29.7 NW 8 13 1005.8 - 0.0 - - 10 - - - -
15/04:30pm 29.9 NNW 8 13 1005.8 - 0.0 - - 10 - - - -
15/04:00pm 30.8 NNW 9 13 1006.0 - 0.0 - - 10 - - - -
15/03:30pm 30.5 NW 9 14 1006.0 - 0.0 - - 10 - - - -
15/03:00pm 31.1 NW 9 14 1006.1 - 0.0 - Mostly clear 10 - - - -
15/02:30pm 30.8 NW 10 14 1006.3 - 0.0 - - 10 - - - -
15/02:00pm 30.8 NNW 8 13 1006.5 - 0.0 - - 10 - - - -
15/01:30pm 30.5 NNW 10 14 1006.6 - 0.0 - - 10 - - - -
15/01:00pm 30.9 NW 8 14 1007.1 - 0.0 - - 10 - - - -
15/12:30pm 31.4 WNW 9 13 1007.3 - 0.0 - Partly cloudy 10 - - - -
15/12:00pm 31.7 NW 8 - 1007.6 - 0.0 - - 10 - - - -
15/11:30am 32.1 WNW 7 11 1007.8 - 0.0 - - 10 - - - -
15/11:00am 31.5 W 8 11 1008.1 - 0.0 - - 10 - - - -
15/10:30am 31.0 W 7 - 1008.0 - 0.0 - - 10 - - - -
15/10:00am 31.0 WNW 7 11 1008.7 - 0.0 - Partly cloudy 10 - - - -
15/09:30am 30.6 NW 5 8 1008.8 - 0.0 - - 10 - - - -
15/09:00am 30.7 W 5 8 1009.0 - 0.0 - - 10 - - - -
15/08:30am 30.0 W 5 - 1009.0 - 0.0 - Partly cloudy 10 - - - -
15/08:00am 29.4 W 5 - 1009.1 - 0.0 - Partly cloudy 10 - - - -
15/07:30am 29.2 WNW 5 7 1008.8 - 0.0 - Partly cloudy 10 - - - -
15/07:00am 28.6 WNW 5 9 1008.9 - 0.0 - - 10 - - - -
15/06:30am 28.3 WNW 4 6 1008.7 - 0.0 - - 10 - - - -
15/06:00am 27.2 WNW 3 4 1008.7 - 0.0 - Mostly clear 10 - - - -
15/05:30am 26.8 WNW 3 4 1008.5 - 0.0 - Partly cloudy 10 - - - -
15/05:00am 27.0 WNW 3 4 1008.2 - 0.0 - - 10 - - - -
15/04:30am 27.0 WNW 3 - 1008.0 - 0.0 - Partly cloudy 10 - - - -
15/04:00am 27.4 W 4 5 1007.4 - 0.0 - - 10 - - - -
15/03:30am 27.4 WNW 5 9 1007.4 - 0.0 - - 10 - - - -
15/03:00am 26.9 WNW 4 5 1007.3 - 0.0 - Mostly clear 10 - - - -
15/02:30am 27.1 WNW 1 3 1007.3 - 0.0 - - 10 - - - -
15/02:00am 27.2 WNW 3 4 1007.5 - 0.0 - - 10 - - - -
15/01:30am 27.3 NW 4 6 1007.6 - 0.0 - - 10 - - - -
15/01:00am 27.3 NW 3 4 1007.6 - 0.0 - Partly cloudy 10 - - - -
15/12:30am 27.7 WNW 4 6 1007.8 - 0.0 - - 10 - - - -
15/12:00am 27.9 W 4 6 1008.1 - 0.0 - - 10 - - - -
 
Date/Time
WST
Temp
°C
Wind Pressure Rain since
9am
mm
Weather Cloud Vis
km
Sea
Height
m
Swell
Dir  Spd
kts
Gust
kts
hPa Trend Height
m
Period
s
Dir
14/11:30pm 27.8 WNW 4 6 1008.2 - 0.0 - - 10 - - - -
14/11:00pm 27.9 WNW 4 7 1008.4 - 0.0 - - 10 - - - -
14/10:30pm 28.0 WNW 5 6 1008.5 - 0.0 - - 10 - - - -
14/10:00pm 28.0 WNW 4 6 1008.6 - 0.0 - - 10 - - - -
14/09:30pm 28.2 WNW 5 7 1008.8 - 0.0 - - 10 - - - -
14/09:00pm 28.2 WNW 5 8 1008.7 - 0.0 - - 10 - - - -
14/08:30pm 28.4 WNW 6 9 1008.3 - 0.0 - - 10 - - - -
14/08:00pm 28.5 WNW 6 9 1007.9 - 0.0 - - 10 - - - -
14/07:30pm 28.7 WNW 5 7 1007.5 - 0.0 - - 10 - - - -
14/07:00pm 28.8 W 5 - 1007.0 - 0.0 - Partly cloudy 10 - - - -
14/06:30pm 28.9 W 6 9 1006.7 - 0.0 - - 10 - - - -
14/06:00pm 29.1 W 6 11 1006.3 - 0.0 - - 10 - - - -
14/05:30pm 29.4 WNW 7 11 1005.9 - 0.0 - Partly cloudy 10 - - - -
14/05:00pm 29.7 W 8 11 1005.4 - 0.0 - Partly cloudy 10 - - - -
14/04:30pm 30.0 W 8 12 1005.4 - 0.0 - - 10 - - - -
14/04:00pm 30.0 W 9 12 1005.4 - 0.0 - - 10 - - - -
14/03:30pm 30.2 WNW 9 13 1005.5 - 0.0 - - 10 - - - -
14/03:00pm 30.6 W 9 13 1005.6 - 0.0 - - 10 - - - -
14/02:30pm 30.9 WNW 9 14 1005.7 - 0.0 - Partly cloudy 10 - - - -
14/02:00pm 31.0 WNW 9 13 1006.0 - 0.0 - Partly cloudy 10 - - - -
14/01:30pm 31.0 W 10 - 1006.0 - 0.0 - Partly cloudy 10 - - - -
14/01:00pm 30.7 W 9 13 1006.5 - 0.0 - Partly cloudy 10 - - - -
14/12:30pm 30.4 WNW 8 13 1006.8 - 0.0 - Cloudy 10 - - - -
14/12:00pm 30.9 W 9 - 1007.0 - 0.0 - Mostly cloudy 10 - - - -
14/11:30am 30.0 W 8 - 1007.0 - 0.0 - Partly cloudy 10 - - - -
14/11:00am 30.7 W 10 - 1007.2 - 0.0 - Partly cloudy 10 - - - -
14/10:30am 30.3 W 10 14 1007.4 - 0.0 - Cloudy 10 - - - -
14/10:00am 30.1 WSW 8 11 1007.5 - 0.0 - Cloudy 10 - - - -
14/09:30am 30.0 W 8 - 1008.0 - 0.0 - Partly cloudy 10 - - - -
14/09:00am 29.9 W 9 - 1007.5 - 0.0 - Partly cloudy 10 - - - -

Other Formats:

Comma delimited format used in spreadsheet applications
http://www.bom.gov.au/fwo/IDW60701/IDW60701.95101.axf

JavaScript Object Notation format (JSON) in row-major order
http://www.bom.gov.au/fwo/IDW60701/IDW60701.95101.json